Time;durP1;ratioP1;P1;durP2;ratioP2;P2;SDS_P1;SDS_P2;PMS_P1;PMS_P2;Temp;Humidity;BMP_temperature;BMP_pressure;BME280_temperature;BME280_humidity;BME280_pressure;Samples;Min_cycle;Max_cycle;Signal;HPM_P1;HPM_P2
2024/03/13 00:00:10;;;;;;;0.10;0.00;;;;;;;37.38;27.03;99081.59;7392479;19;20038;-55
2024/03/13 00:02:41;;;;;;;0.17;0.00;;;;;;;37.01;27.19;99088.47;7395543;19;20067;-55
2024/03/13 00:05:12;;;;;;;0.10;0.10;;;;;;;37.23;27.12;99078.25;7393277;19;20011;-55
2024/03/13 00:07:38;;;;;;;0.38;0.10;;;;;;;38.06;26.77;99076.84;7392317;19;20022;-55
2024/03/13 00:10:06;;;;;;;0.20;0.15;;;;;;;37.56;27.03;99073.34;7392245;19;20027;-55
2024/03/13 00:12:34;;;;;;;0.10;0.10;;;;;;;37.05;27.15;99082.78;7396413;19;20346;-55
2024/03/13 00:15:05;;;;;;;0.10;0.10;;;;;;;36.79;27.28;99081.97;7393519;19;20405;-55
2024/03/13 00:17:31;;;;;;;0.10;0.10;;;;;;;36.38;27.66;99085.75;7393284;19;20010;-55
2024/03/13 00:19:57;;;;;;;0.00;0.00;;;;;;;36.85;27.21;99080.00;7396793;19;20396;-55
2024/03/13 00:22:25;;;;;;;0.10;0.10;;;;;;;36.50;27.25;99075.31;7398049;19;20470;-55
2024/03/13 00:24:58;;;;;;;0.10;0.00;;;;;;;36.09;27.96;99077.53;7395675;19;20400;-55
2024/03/13 00:27:24;;;;;;;0.20;0.20;;;;;;;35.64;28.11;99081.81;7392843;19;20550;-55
2024/03/13 00:29:51;;;;;;;3.80;0.20;;;;;;;35.43;28.75;99085.34;7396997;19;20363;-55
2024/03/13 00:32:20;;;;;;;0.10;0.00;;;;;;;35.37;28.27;99096.72;7393803;19;20034;-55
2024/03/13 00:34:46;;;;;;;0.10;0.10;;;;;;;35.40;28.71;99091.75;7392045;19;20342;-55
2024/03/13 00:37:14;;;;;;;0.10;0.05;;;;;;;35.27;28.90;99078.25;7395694;19;20021;-55
2024/03/13 00:39:44;;;;;;;0.10;0.00;;;;;;;35.39;28.58;99079.44;7391458;19;20446;-55
2024/03/13 00:42:13;;;;;;;0.00;0.00;;;;;;;35.51;28.61;99070.47;7392467;19;20030;-55
2024/03/13 00:44:40;;;;;;;2.38;0.40;;;;;;;35.41;28.64;99076.59;7391661;19;20027;-55
2024/03/13 00:47:14;;;;;;;0.63;0.10;;;;;;;36.58;27.69;99068.28;7396106;19;20470;-55
2024/03/13 00:49:42;;;;;;;0.10;0.00;;;;;;;36.61;27.78;99070.56;7392816;19;20015;-55
2024/03/13 00:52:08;;;;;;;0.15;0.15;;;;;;;36.31;27.64;99069.56;7392227;19;20014;-55
2024/03/13 00:54:35;;;;;;;0.00;0.00;;;;;;;34.82;29.06;99070.03;7392179;19;20015;-55
2024/03/13 00:57:02;;;;;;;3.85;0.40;;;;;;;34.24;29.48;99065.56;7390808;19;20085;-55
2024/03/13 00:59:29;;;;;;;0.10;0.10;;;;;;;34.48;29.30;99065.78;7393408;19;20011;-55
2024/03/13 01:01:55;;;;;;;1.13;0.10;;;;;;;34.83;29.00;99071.50;7395911;19;20011;-55
2024/03/13 01:04:25;;;;;;;0.10;0.00;;;;;;;35.01;28.84;99081.66;7390934;19;20466;-55
2024/03/13 01:06:51;;;;;;;0.10;0.10;;;;;;;35.43;28.62;99073.78;7391835;19;20082;-55
2024/03/13 01:09:23;;;;;;;0.10;0.10;;;;;;;35.34;28.58;99066.22;7393166;19;20014;-55
2024/03/13 01:11:52;;;;;;;0.30;0.30;;;;;;;35.17;28.82;99060.53;7393469;19;20397;-55
2024/03/13 01:14:20;;;;;;;0.52;0.38;;;;;;;34.92;29.28;99050.16;7394593;19;20011;-55
2024/03/13 01:16:52;;;;;;;0.40;0.20;;;;;;;34.86;29.05;99059.38;7402620;19;20014;-55
2024/03/13 01:19:20;;;;;;;0.10;0.05;;;;;;;34.96;29.00;99059.00;7397963;19;20015;-55
2024/03/13 01:21:53;;;;;;;0.10;0.00;;;;;;;35.07;28.91;99063.78;7401766;19;20014;-55
2024/03/13 01:24:20;;;;;;;0.10;0.00;;;;;;;34.99;28.48;99060.56;7398475;19;20006;-55
2024/03/13 01:26:49;;;;;;;0.00;0.00;;;;;;;34.78;28.96;99055.41;7399038;19;20006;-55
2024/03/13 01:29:16;;;;;;;2.17;0.45;;;;;;;34.70;29.14;99066.66;7396379;19;20006;-55
2024/03/13 01:31:42;;;;;;;0.10;0.10;;;;;;;33.86;29.81;99073.34;7397551;19;20025;-55
2024/03/13 01:34:09;;;;;;;0.68;0.20;;;;;;;33.83;29.82;99068.16;7402766;19;20006;-55
2024/03/13 01:39:22;;;;;;;0.10;0.00;;;;;;;33.50;29.88;99051.56;7397496;19;20011;-55
2024/03/13 01:55:48;;;;;;;0.10;0.00;;;;;;;34.19;29.46;99050.22;7398204;19;20014;-55
2024/03/13 01:58:29;;;;;;;0.10;0.00;;;;;;;33.99;29.45;99046.47;7397517;19;20015;-55
2024/03/13 02:03:41;;;;;;;0.30;0.10;;;;;;;35.14;28.70;99035.78;7397803;19;20011;-55
2024/03/13 02:06:08;;;;;;;0.00;0.00;;;;;;;35.41;28.20;99027.38;7399528;19;20349;-55
2024/03/13 02:08:35;;;;;;;0.10;0.10;;;;;;;35.29;28.46;99011.72;7398856;19;20348;-55
2024/03/13 02:11:02;;;;;;;0.00;0.00;;;;;;;35.39;27.96;99006.28;7397652;19;20003;-55
2024/03/13 02:13:28;;;;;;;0.10;0.00;;;;;;;35.38;27.86;99008.44;7397636;19;20021;-55
2024/03/13 02:15:54;;;;;;;0.10;0.00;;;;;;;35.29;27.98;99000.88;7398435;19;20013;-55
2024/03/13 02:18:23;;;;;;;0.10;0.10;;;;;;;35.41;28.01;99007.09;7397195;19;20177;-55
2024/03/13 02:20:58;;;;;;;1.00;0.10;;;;;;;35.55;28.08;98998.94;7398780;19;20029;-55
2024/03/13 02:23:31;;;;;;;0.00;0.00;;;;;;;34.90;28.65;98998.00;7395192;19;20027;-55
2024/03/13 02:25:58;;;;;;;0.10;0.00;;;;;;;35.43;27.88;99009.34;7395820;19;20002;-55
2024/03/13 02:28:36;;;;;;;0.00;0.00;;;;;;;35.53;28.17;99001.00;7395463;19;20014;-55
2024/03/13 02:31:07;;;;;;;0.43;0.35;;;;;;;33.99;29.50;99006.00;7396084;19;20022;-55
2024/03/13 02:33:34;;;;;;;0.10;0.00;;;;;;;34.75;28.37;99001.78;7400289;19;20026;-55
2024/03/13 02:36:01;;;;;;;0.10;0.10;;;;;;;34.97;28.51;98993.91;7396340;19;20383;-55
2024/03/13 02:38:28;;;;;;;0.10;0.00;;;;;;;33.56;29.60;98999.88;7396982;19;20470;-55
2024/03/13 02:40:54;;;;;;;0.10;0.10;;;;;;;34.26;29.16;98996.25;7399330;19;20018;-55
2024/03/13 02:43:21;;;;;;;1.05;0.30;;;;;;;34.68;28.50;98991.38;7397371;19;20018;-55
2024/03/13 02:45:47;;;;;;;0.00;0.00;;;;;;;34.45;28.93;98991.91;7396327;19;20014;-55
2024/03/13 02:48:15;;;;;;;0.05;0.00;;;;;;;33.83;29.56;98998.81;7397463;19;20021;-55
2024/03/13 02:50:44;;;;;;;0.10;0.00;;;;;;;32.62;30.99;98997.13;7394919;19;20014;-55
2024/03/13 02:53:10;;;;;;;0.10;0.10;;;;;;;33.37;30.18;98994.69;7395329;19;20355;-55
2024/03/13 02:55:37;;;;;;;0.10;0.00;;;;;;;34.06;29.74;98990.41;7397854;19;20028;-55
2024/03/13 02:58:04;;;;;;;0.10;0.00;;;;;;;34.33;28.91;98981.38;7394941;19;20024;-55
2024/03/13 03:00:30;;;;;;;0.20;0.20;;;;;;;33.82;29.52;98974.97;7394509;19;20006;-55
2024/03/13 03:02:57;;;;;;;0.25;0.10;;;;;;;34.00;29.37;98978.56;7395875;19;20011;-55
2024/03/13 03:05:27;;;;;;;0.10;0.00;;;;;;;34.45;28.93;98975.31;7394707;19;20342;-55
2024/03/13 03:07:53;;;;;;;0.10;0.00;;;;;;;31.88;31.23;98984.88;7398222;19;20010;-55
2024/03/13 03:10:19;;;;;;;0.10;0.10;;;;;;;31.00;32.42;98984.72;7398513;19;20025;-55
2024/03/13 03:12:45;;;;;;;0.20;0.10;;;;;;;31.28;32.31;98985.44;7398137;19;20471;-55
2024/03/13 03:15:11;;;;;;;0.10;0.00;;;;;;;31.21;32.48;98990.13;7398773;19;20014;-55
2024/03/13 03:17:38;;;;;;;0.10;0.00;;;;;;;32.11;31.62;98981.72;7394632;19;20014;-55
2024/03/13 03:20:06;;;;;;;0.10;0.00;;;;;;;32.86;30.84;98980.16;7397631;19;20380;-55
2024/03/13 03:22:32;;;;;;;0.10;0.00;;;;;;;33.96;29.38;98978.41;7395747;19;20017;-55
2024/03/13 03:24:58;;;;;;;0.10;0.00;;;;;;;33.54;30.08;98973.78;7394861;19;20021;-55
2024/03/13 03:27:27;;;;;;;0.10;0.08;;;;;;;33.45;30.30;98966.91;7394402;19;20018;-55
2024/03/13 03:29:53;;;;;;;0.40;0.10;;;;;;;33.01;30.68;98962.09;7395320;19;20010;-55
2024/03/13 03:32:19;;;;;;;0.10;0.00;;;;;;;32.88;30.77;98957.91;7393168;19;20034;-55
2024/03/13 03:34:46;;;;;;;0.10;0.00;;;;;;;33.17;30.55;98954.16;7393457;19;20010;-54
2024/03/13 03:37:13;;;;;;;0.10;0.00;;;;;;;33.23;30.52;98962.31;7394619;19;20478;-55
2024/03/13 03:39:40;;;;;;;0.00;0.00;;;;;;;31.99;31.52;98963.81;7393823;19;20331;-55
2024/03/13 03:42:06;;;;;;;0.22;0.10;;;;;;;31.75;31.63;98956.88;7394455;19;20027;-54
2024/03/13 03:44:32;;;;;;;0.30;0.30;;;;;;;29.83;33.87;98963.19;7394335;19;20019;-54
2024/03/13 03:46:59;;;;;;;0.25;0.25;;;;;;;27.93;36.25;98948.00;7397800;19;20033;-54
2024/03/13 03:49:26;;;;;;;0.10;0.00;;;;;;;28.17;36.22;98958.19;7392911;19;20021;-54
2024/03/13 03:51:52;;;;;;;0.10;0.00;;;;;;;26.81;38.23;98964.84;7392437;19;20015;-54
2024/03/13 03:54:21;;;;;;;0.10;0.00;;;;;;;27.67;37.60;98952.03;7396800;19;20013;-54
2024/03/13 03:56:48;;;;;;;0.00;0.00;;;;;;;28.00;36.97;98957.75;7398513;19;20051;-55
2024/03/13 03:59:14;;;;;;;0.82;0.30;;;;;;;28.24;36.77;98957.16;7393352;19;20015;-54
2024/03/13 04:01:41;;;;;;;0.10;0.05;;;;;;;28.42;36.86;98946.84;7393971;19;20014;-54
2024/03/13 04:04:07;;;;;;;0.10;0.00;;;;;;;30.39;34.45;98940.50;7392793;19;20070;-55
2024/03/13 04:06:34;;;;;;;0.50;0.20;;;;;;;30.15;34.48;98950.63;7393253;19;20070;-54
2024/03/13 04:09:05;;;;;;;0.10;0.10;;;;;;;29.52;35.35;98957.06;7395158;19;20023;-55
2024/03/13 04:11:31;;;;;;;4.43;0.52;;;;;;;31.59;33.13;98944.56;7397583;19;20467;-54
2024/03/13 04:13:57;;;;;;;0.32;0.20;;;;;;;31.68;32.62;98947.22;7398186;19;20011;-54
2024/03/13 04:16:23;;;;;;;0.28;0.20;;;;;;;31.50;33.14;98934.78;7395963;19;20408;-54
2024/03/13 04:18:50;;;;;;;0.10;0.00;;;;;;;31.78;32.60;98941.94;7392689;19;20011;-54
2024/03/13 04:21:16;;;;;;;0.10;0.10;;;;;;;32.93;31.55;98944.41;7392581;19;20070;-54
2024/03/13 04:23:45;;;;;;;0.00;0.00;;;;;;;33.30;31.38;98943.88;7395370;19;20498;-55
2024/03/13 04:26:15;;;;;;;0.30;0.20;;;;;;;32.69;31.54;98955.63;7392490;19;20022;-55
2024/03/13 04:28:44;;;;;;;0.55;0.20;;;;;;;32.68;31.25;98951.25;7391685;19;20066;-55
2024/03/13 04:31:13;;;;;;;0.10;0.00;;;;;;;32.56;31.28;98944.94;7393962;19;20329;-55
2024/03/13 04:33:42;;;;;;;0.10;0.10;;;;;;;32.06;31.55;98940.44;7397084;19;20019;-55
2024/03/13 04:36:08;;;;;;;0.10;0.05;;;;;;;31.68;32.58;98929.94;7393230;19;20014;-55
2024/03/13 04:38:35;;;;;;;3.88;0.35;;;;;;;32.83;30.82;98933.16;7391690;19;20033;-55
2024/03/13 04:41:01;;;;;;;2.45;0.82;;;;;;;33.07;30.87;98939.28;7391503;19;20015;-55
2024/03/13 04:43:27;;;;;;;0.68;0.45;;;;;;;32.89;30.72;98936.34;7390960;19;20360;-54
2024/03/13 04:45:53;;;;;;;0.38;0.38;;;;;;;31.64;31.81;98941.22;7395107;19;20011;-55
2024/03/13 04:48:20;;;;;;;0.52;0.28;;;;;;;29.66;34.11;98947.16;7391561;19;20093;-54
2024/03/13 04:50:46;;;;;;;0.00;0.00;;;;;;;26.80;37.49;98937.66;7399855;19;20015;-54
2024/03/13 04:53:12;;;;;;;0.10;0.00;;;;;;;25.91;39.07;98944.88;7399435;19;20022;-55
2024/03/13 04:55:38;;;;;;;0.00;0.00;;;;;;;26.00;39.89;98949.06;7398786;19;20847;-54
2024/03/13 04:58:05;;;;;;;6.03;0.68;;;;;;;28.66;36.00;98936.16;7401779;19;20014;-54
2024/03/13 05:00:31;;;;;;;0.05;0.00;;;;;;;28.67;35.86;98931.19;7399910;19;20466;-54
2024/03/13 05:02:57;;;;;;;0.05;0.05;;;;;;;27.03;37.99;98937.78;7400010;19;20007;-54
2024/03/13 05:05:23;;;;;;;0.10;0.03;;;;;;;27.10;38.39;98926.75;7403794;19;20018;-54
2024/03/13 05:07:49;;;;;;;0.52;0.28;;;;;;;27.10;38.22;98926.75;7400806;19;20462;-54
2024/03/13 05:10:16;;;;;;;0.30;0.20;;;;;;;25.90;39.60;98928.38;7401053;19;20018;-54
2024/03/13 05:12:43;;;;;;;0.10;0.00;;;;;;;27.04;38.70;98925.00;7403575;19;20018;-54
2024/03/13 05:15:10;;;;;;;0.10;0.03;;;;;;;28.93;36.14;98924.16;7399557;19;20010;-55
2024/03/13 05:17:36;;;;;;;0.10;0.00;;;;;;;29.32;35.60;98930.06;7399582;19;20010;-55
2024/03/13 05:20:12;;;;;;;6.90;0.30;;;;;;;29.38;35.44;98927.53;7403359;19;20041;-54
2024/03/13 05:22:38;;;;;;;3.50;0.43;;;;;;;28.76;35.87;98933.91;7398649;19;20011;-55
2024/03/13 05:25:05;;;;;;;0.38;0.32;;;;;;;28.60;36.16;98932.19;7398470;19;20014;-54
2024/03/13 05:27:32;;;;;;;0.15;0.15;;;;;;;28.61;36.07;98922.94;7397907;19;20010;-55
2024/03/13 05:29:58;;;;;;;0.10;0.00;;;;;;;28.52;36.17;98927.41;7397595;19;20360;-55
2024/03/13 05:32:24;;;;;;;0.10;0.00;;;;;;;28.17;36.64;98918.09;7401201;19;20031;-55
2024/03/13 05:34:50;;;;;;;0.10;0.10;;;;;;;28.57;36.04;98924.81;7397101;19;20006;-54
2024/03/13 05:37:16;;;;;;;0.00;0.00;;;;;;;28.96;35.54;98920.03;7398654;19;20492;-55
2024/03/13 05:39:43;;;;;;;0.45;0.08;;;;;;;29.20;35.54;98912.88;7402331;19;20023;-55
2024/03/13 05:42:10;;;;;;;0.40;0.20;;;;;;;29.50;35.30;98911.78;7402481;19;20021;-55
2024/03/13 05:44:38;;;;;;;0.00;0.00;;;;;;;29.46;35.01;98923.03;7398294;19;20097;-54
2024/03/13 05:47:04;;;;;;;0.10;0.10;;;;;;;30.30;34.02;98914.81;7402083;19;20014;-55
2024/03/13 05:49:30;;;;;;;4.18;0.28;;;;;;;30.99;33.36;98911.31;7397200;19;20010;-55
2024/03/13 05:51:56;;;;;;;0.10;0.10;;;;;;;30.85;33.32;98892.56;7400188;19;20025;-55
2024/03/13 05:54:23;;;;;;;0.10;0.00;;;;;;;31.17;32.75;98892.13;7400035;19;20018;-54
2024/03/13 05:56:50;;;;;;;0.10;0.10;;;;;;;32.40;31.54;98892.28;7397344;19;20014;-54
2024/03/13 05:59:18;;;;;;;0.35;0.30;;;;;;;32.50;31.27;98880.50;7397079;19;20030;-54
2024/03/13 06:01:44;;;;;;;1.85;0.10;;;;;;;32.19;31.84;98889.88;7395436;19;20083;-54
2024/03/13 06:04:10;;;;;;;0.20;0.20;;;;;;;33.61;30.55;98880.94;7397717;19;20015;-55
2024/03/13 06:06:39;;;;;;;0.13;0.13;;;;;;;33.53;30.06;98885.66;7398990;19;20015;-54
2024/03/13 06:09:06;;;;;;;0.40;0.30;;;;;;;33.45;30.42;98891.09;7396323;19;20573;-55
2024/03/13 06:11:34;;;;;;;0.10;0.00;;;;;;;32.98;30.97;98884.75;7401593;19;20082;-54
2024/03/13 06:14:00;;;;;;;0.47;0.15;;;;;;;33.07;30.59;98898.16;7396904;19;20356;-55
2024/03/13 06:16:26;;;;;;;0.30;0.10;;;;;;;33.63;29.97;98895.47;7399609;19;20018;-55
2024/03/13 06:18:52;;;;;;;0.10;0.10;;;;;;;33.40;30.32;98890.19;7396759;19;20015;-55
2024/03/13 06:21:20;;;;;;;0.10;0.00;;;;;;;32.88;30.71;98900.22;7396842;19;20070;-54
2024/03/13 06:23:52;;;;;;;0.20;0.20;;;;;;;32.57;30.99;98882.25;7397404;19;20011;-55
2024/03/13 06:26:18;;;;;;;0.10;0.10;;;;;;;32.53;30.97;98887.84;7396989;19;20017;-55
2024/03/13 06:31:29;;;;;;;6.07;0.25;;;;;;;31.97;31.34;98897.47;7396097;19;20081;-54
2024/03/13 06:33:55;;;;;;;2.83;0.82;;;;;;;31.62;31.52;98902.97;7400308;19;20030;-55
2024/03/13 06:36:22;;;;;;;2.45;0.40;;;;;;;31.59;31.94;98907.13;7400176;19;20015;-55
2024/03/13 06:38:48;;;;;;;2.22;0.60;;;;;;;31.73;31.57;98913.59;7395437;19;20011;-54
2024/03/13 06:41:14;;;;;;;2.47;0.98;;;;;;;32.20;31.64;98910.78;7396199;19;20010;-55
2024/03/13 06:43:40;;;;;;;6.15;2.05;;;;;;;32.09;31.55;98916.09;7394828;19;20073;-54
2024/03/13 06:46:06;;;;;;;1.58;1.05;;;;;;;31.93;31.53;98920.31;7398330;19;20022;-55
2024/03/13 06:48:33;;;;;;;6.57;1.63;;;;;;;31.96;31.71;98925.56;7397784;19;20023;-55
2024/03/13 06:51:03;;;;;;;1.20;0.75;;;;;;;32.04;31.82;98916.53;7396860;19;20032;-55
2024/03/13 06:53:29;;;;;;;1.95;0.98;;;;;;;31.32;32.37;98922.34;7395576;19;20018;-55
2024/03/13 06:55:55;;;;;;;7.22;2.03;;;;;;;31.11;32.81;98926.34;7395197;19;20483;-55
2024/03/13 06:58:21;;;;;;;0.70;0.57;;;;;;;31.19;32.87;98929.63;7398740;19;20038;-55
2024/03/13 07:00:47;;;;;;;1.95;0.68;;;;;;;31.51;32.14;98933.41;7395756;19;20034;-55
2024/03/13 07:03:13;;;;;;;0.30;0.20;;;;;;;31.39;32.49;98927.00;7395479;19;20014;-55
2024/03/13 07:05:40;;;;;;;1.00;0.20;;;;;;;30.58;33.41;98927.84;7395738;19;20013;-55
2024/03/13 07:08:06;;;;;;;3.90;0.80;;;;;;;29.02;35.12;98926.16;7397743;19;20044;-55
2024/03/13 07:10:32;;;;;;;0.47;0.43;;;;;;;29.50;34.42;98923.25;7398101;19;20027;-55
2024/03/13 07:12:58;;;;;;;5.88;0.95;;;;;;;28.05;36.20;98920.19;7393228;19;20033;-55
2024/03/13 07:15:24;;;;;;;3.00;0.63;;;;;;;28.50;35.69;98917.97;7396124;19;20011;-55
2024/03/13 07:17:51;;;;;;;0.82;0.30;;;;;;;29.55;34.86;98913.50;7394893;19;20014;-55
2024/03/13 07:20:17;;;;;;;1.38;0.20;;;;;;;27.72;37.30;98908.03;7397806;19;20359;-55
2024/03/13 07:22:43;;;;;;;0.47;0.25;;;;;;;26.76;38.17;98914.50;7399429;19;20015;-55
2024/03/13 07:25:12;;;;;;;1.20;0.25;;;;;;;26.87;38.52;98911.00;7394378;19;20011;-55
2024/03/13 07:27:38;;;;;;;0.80;0.57;;;;;;;26.52;39.47;98914.91;7394053;19;20010;-55
2024/03/13 07:30:05;;;;;;;0.35;0.28;;;;;;;25.92;40.19;98919.97;7395305;19;20018;-55
2024/03/13 07:32:34;;;;;;;0.68;0.35;;;;;;;25.56;41.49;98921.69;7398590;19;20011;-55
2024/03/13 07:35:01;;;;;;;2.38;0.30;;;;;;;26.54;40.08;98912.22;7394245;19;20034;-55
2024/03/13 07:37:27;;;;;;;1.30;0.77;;;;;;;26.99;39.43;98911.78;7394274;19;20006;-55
2024/03/13 07:39:55;;;;;;;0.25;0.25;;;;;;;27.86;38.93;98917.50;7392322;19;20021;-55
2024/03/13 07:42:21;;;;;;;4.05;0.63;;;;;;;26.47;40.71;98919.59;7395868;19;20017;-55
2024/03/13 07:44:47;;;;;;;0.80;0.80;;;;;;;25.70;41.96;98926.91;7394047;19;20082;-55
2024/03/13 07:47:14;;;;;;;0.20;0.20;;;;;;;25.10;43.24;98926.03;7398968;19;20092;-55
2024/03/13 07:49:40;;;;;;;0.30;0.30;;;;;;;26.03;42.13;98916.47;7392411;19;20018;-55
2024/03/13 07:52:06;;;;;;;0.10;0.10;;;;;;;27.00;40.85;98923.97;7393959;19;20534;-55
2024/03/13 07:54:32;;;;;;;0.13;0.05;;;;;;;25.32;43.45;98919.88;7395796;19;20018;-55
2024/03/13 07:56:58;;;;;;;0.75;0.20;;;;;;;26.50;41.62;98917.63;7392848;19;20087;-55
2024/03/13 07:59:27;;;;;;;0.45;0.45;;;;;;;26.61;41.76;98916.97;7393053;19;20011;-55
2024/03/13 08:01:54;;;;;;;0.10;0.10;;;;;;;26.68;42.23;98922.47;7393716;19;20037;-55
2024/03/13 08:04:23;;;;;;;0.13;0.00;;;;;;;27.21;41.36;98920.34;7394345;19;20013;-55
2024/03/13 08:06:49;;;;;;;0.17;0.17;;;;;;;26.47;42.21;98928.16;7394936;19;20018;-55
2024/03/13 08:09:15;;;;;;;0.25;0.00;;;;;;;26.23;42.69;98929.31;7390218;19;20037;-55
2024/03/13 08:11:41;;;;;;;0.70;0.10;;;;;;;27.95;40.15;98925.25;7394444;19;20011;-55
2024/03/13 08:14:07;;;;;;;0.85;0.10;;;;;;;28.21;40.10;98935.53;7392292;19;20099;-55
2024/03/13 08:16:33;;;;;;;0.43;0.35;;;;;;;27.43;40.55;98921.84;7395212;19;20017;-55
2024/03/13 08:19:00;;;;;;;2.70;0.40;;;;;;;27.32;41.13;98920.41;7397192;19;20033;-55
2024/03/13 08:21:26;;;;;;;0.10;0.10;;;;;;;27.29;41.20;98915.19;7397857;19;20032;-55
2024/03/13 08:23:52;;;;;;;0.22;0.20;;;;;;;27.32;41.09;98920.41;7391235;19;20015;-55
2024/03/13 08:26:18;;;;;;;0.28;0.28;;;;;;;28.46;39.82;98929.16;7390793;19;20010;-55
2024/03/13 08:28:44;;;;;;;3.70;0.40;;;;;;;28.07;39.96;98923.16;7393456;19;20029;-55
2024/03/13 08:31:11;;;;;;;4.55;0.20;;;;;;;28.68;39.10;98926.94;7394478;19;20010;-55
2024/03/13 08:33:37;;;;;;;0.00;0.00;;;;;;;29.59;37.97;98928.06;7393961;19;20034;-55
2024/03/13 08:36:04;;;;;;;6.32;0.30;;;;;;;30.16;36.97;98937.00;7393692;19;20017;-55
2024/03/13 08:38:32;;;;;;;0.28;0.10;;;;;;;30.26;36.59;98921.06;7391733;19;20003;-55
2024/03/13 08:41:00;;;;;;;0.08;0.00;;;;;;;30.82;36.12;98942.75;7394737;19;20015;-55
2024/03/13 08:43:26;;;;;;;0.40;0.28;;;;;;;31.41;35.66;98930.75;7394652;19;20018;-55
2024/03/13 08:45:53;;;;;;;0.52;0.25;;;;;;;31.11;35.37;98932.09;7395705;19;20080;-55
2024/03/13 08:48:20;;;;;;;0.28;0.20;;;;;;;31.05;35.40;98931.03;7390744;19;20018;-55
2024/03/13 08:50:46;;;;;;;0.00;0.00;;;;;;;30.95;35.45;98937.00;7392671;19;20014;-55
2024/03/13 08:53:14;;;;;;;0.10;0.10;;;;;;;28.85;37.91;98935.13;7391602;19;20023;-55
2024/03/13 08:55:40;;;;;;;0.10;0.00;;;;;;;28.83;38.37;98932.16;7392739;19;20070;-55
2024/03/13 08:58:07;;;;;;;0.10;0.10;;;;;;;29.98;36.67;98931.75;7392090;19;20006;-55
2024/03/13 09:00:33;;;;;;;4.88;0.20;;;;;;;28.94;38.21;98931.38;7392722;19;20010;-55
2024/03/13 09:03:02;;;;;;;0.80;0.13;;;;;;;28.06;39.78;98938.84;7392662;19;20027;-55
2024/03/13 09:05:32;;;;;;;1.20;0.20;;;;;;;29.11;38.31;98922.34;7393908;19;20502;-55
2024/03/13 09:07:58;;;;;;;0.10;0.00;;;;;;;28.09;39.40;98931.88;7393365;19;20011;-55
2024/03/13 09:10:25;;;;;;;0.17;0.17;;;;;;;28.13;39.97;98925.69;7390151;19;20494;-55
2024/03/13 09:12:51;;;;;;;2.50;0.17;;;;;;;27.46;40.42;98927.06;7396100;19;20123;-55
2024/03/13 09:15:17;;;;;;;0.65;0.20;;;;;;;27.63;40.85;98926.03;7391922;19;20015;-55
2024/03/13 09:17:43;;;;;;;0.10;0.00;;;;;;;29.78;38.37;98924.88;7391035;19;20011;-55
2024/03/13 09:20:13;;;;;;;1.60;0.08;;;;;;;29.50;38.33;98923.25;7390343;19;20014;-55
2024/03/13 09:22:41;;;;;;;2.38;0.50;;;;;;;28.09;40.36;98914.69;7391544;19;20014;-55
2024/03/13 09:25:14;;;;;;;0.13;0.03;;;;;;;28.14;40.60;98912.84;7391244;19;20007;-55
2024/03/13 09:27:40;;;;;;;0.25;0.25;;;;;;;27.93;40.28;98902.22;7392277;19;20007;-55
2024/03/13 09:30:08;;;;;;;0.95;0.30;;;;;;;28.95;38.94;98915.69;7395464;19;20014;-55
2024/03/13 09:32:35;;;;;;;0.20;0.20;;;;;;;30.09;37.31;98917.94;7391549;19;20505;-55
2024/03/13 09:35:04;;;;;;;1.55;0.10;;;;;;;30.10;37.65;98913.72;7391915;19;20007;-55
2024/03/13 09:37:31;;;;;;;0.10;0.05;;;;;;;30.91;36.56;98902.28;7395585;19;20335;-55
2024/03/13 09:39:58;;;;;;;0.10;0.10;;;;;;;31.55;35.59;98906.94;7399244;19;20023;-55
2024/03/13 09:42:26;;;;;;;0.77;0.10;;;;;;;31.92;35.36;98901.56;7398760;19;20341;-55
2024/03/13 09:44:55;;;;;;;0.50;0.20;;;;;;;32.13;35.20;98912.66;7400873;19;20113;-55
2024/03/13 09:47:26;;;;;;;7.45;0.52;;;;;;;32.36;35.04;98900.00;7401505;19;20026;-55
2024/03/13 09:49:53;;;;;;;0.15;0.15;;;;;;;33.10;33.99;98902.59;7398356;19;20352;-55
2024/03/13 09:52:20;;;;;;;0.13;0.10;;;;;;;32.81;33.67;98901.34;7397584;19;20010;-55
2024/03/13 09:54:47;;;;;;;0.00;0.00;;;;;;;32.72;34.72;98896.66;7397910;19;20017;-55
2024/03/13 09:57:14;;;;;;;0.40;0.20;;;;;;;32.71;34.16;98895.16;7402240;19;20015;-55
2024/03/13 09:59:41;;;;;;;8.80;0.65;;;;;;;32.88;33.64;98891.56;7397385;19;20010;-55
2024/03/13 10:02:18;;;;;;;0.63;0.30;;;;;;;32.30;34.31;98894.72;7396783;19;20086;-55
2024/03/13 10:04:48;;;;;;;1.67;0.25;;;;;;;33.33;32.81;98897.09;7397585;19;20015;-55
2024/03/13 10:07:20;;;;;;;0.68;0.22;;;;;;;33.65;32.61;98894.84;7398203;19;20530;-55
2024/03/13 10:09:49;;;;;;;2.47;0.30;;;;;;;34.81;32.02;98889.13;7399573;19;20011;-55
2024/03/13 10:12:22;;;;;;;0.45;0.10;;;;;;;35.00;31.62;98894.94;7400488;19;20018;-55
2024/03/13 10:14:52;;;;;;;0.25;0.15;;;;;;;34.44;31.88;98898.63;7396553;19;20402;-55
2024/03/13 10:17:21;;;;;;;0.57;0.32;;;;;;;34.16;31.93;98901.19;7396052;19;20400;-55
2024/03/13 10:19:53;;;;;;;0.00;0.00;;;;;;;32.69;33.83;98889.28;7396406;19;20011;-55
2024/03/13 10:22:20;;;;;;;9.10;0.60;;;;;;;32.60;33.91;98898.97;7396010;19;20017;-55
2024/03/13 10:24:48;;;;;;;1.95;0.20;;;;;;;33.49;33.24;98897.03;7397236;19;20355;-55
2024/03/13 10:27:15;;;;;;;0.93;0.30;;;;;;;34.20;32.17;98910.03;7398856;19;20463;-55
2024/03/13 10:29:43;;;;;;;0.38;0.20;;;;;;;34.79;31.41;98910.06;7395073;19;20347;-55
2024/03/13 10:32:11;;;;;;;0.63;0.17;;;;;;;35.98;30.26;98904.69;7396226;19;20014;-55
2024/03/13 10:34:37;;;;;;;6.70;0.55;;;;;;;34.34;31.82;98916.34;7396192;19;20015;-55
2024/03/13 10:37:12;;;;;;;0.63;0.10;;;;;;;34.60;31.42;98916.63;7395279;19;20034;-55
2024/03/13 10:39:41;;;;;;;1.65;0.30;;;;;;;35.05;31.43;98913.19;7395822;19;20074;-55
2024/03/13 10:42:08;;;;;;;0.10;0.00;;;;;;;35.95;30.44;98915.50;7395426;19;20425;-55
2024/03/13 10:44:34;;;;;;;0.98;0.40;;;;;;;34.98;30.85;98917.22;7395976;19;20436;-55
2024/03/13 10:47:01;;;;;;;0.52;0.10;;;;;;;35.11;31.14;98927.84;7399151;19;20077;-55
2024/03/13 10:49:28;;;;;;;0.10;0.10;;;;;;;35.19;30.50;98924.50;7393996;19;20466;-55
2024/03/13 10:51:57;;;;;;;0.95;0.17;;;;;;;36.43;29.50;98907.53;7395929;19;20020;-55
2024/03/13 10:54:24;;;;;;;0.10;0.10;;;;;;;35.18;30.04;98915.06;7393857;19;20022;-55
2024/03/13 10:56:53;;;;;;;0.47;0.30;;;;;;;35.47;29.87;98922.56;7395575;19;20037;-55
2024/03/13 10:59:23;;;;;;;1.48;0.25;;;;;;;36.43;29.31;98901.72;7395903;19;20339;-55
2024/03/13 11:01:52;;;;;;;0.50;0.30;;;;;;;36.80;28.86;98904.22;7395926;19;20070;-55
2024/03/13 11:04:18;;;;;;;0.45;0.30;;;;;;;36.77;28.51;98899.81;7395519;19;20031;-55
2024/03/13 11:06:44;;;;;;;0.20;0.10;;;;;;;36.78;28.37;98906.34;7395654;19;20010;-55
2024/03/13 11:09:20;;;;;;;0.00;0.00;;;;;;;36.91;28.42;98896.56;7397083;19;20018;-55
2024/03/13 11:11:52;;;;;;;0.32;0.10;;;;;;;36.36;28.88;98900.78;7395964;19;20086;-55
2024/03/13 11:14:20;;;;;;;0.32;0.20;;;;;;;37.16;27.90;98899.44;7395191;19;20007;-55
2024/03/13 11:16:50;;;;;;;2.15;0.35;;;;;;;37.54;28.02;98913.47;7397806;19;20049;-55
2024/03/13 11:19:20;;;;;;;0.80;0.25;;;;;;;37.29;28.13;98902.66;7398628;19;20014;-55
2024/03/13 11:21:56;;;;;;;1.55;0.68;;;;;;;37.83;27.58;98909.84;7395533;19;20470;-55
2024/03/13 11:24:25;;;;;;;0.52;0.43;;;;;;;37.81;27.53;98904.00;7395860;19;20013;-55
2024/03/13 11:27:05;;;;;;;4.88;0.20;;;;;;;37.24;27.87;98901.81;7394704;19;20025;-55
2024/03/13 11:29:40;;;;;;;0.90;0.32;;;;;;;37.51;27.59;98903.22;7391977;19;20011;-55
2024/03/13 11:32:08;;;;;;;0.00;0.00;;;;;;;36.99;28.57;98914.94;7397366;19;20014;-55
2024/03/13 11:34:37;;;;;;;0.35;0.35;;;;;;;35.91;29.11;98912.41;7397927;19;20485;-55
2024/03/13 11:37:04;;;;;;;0.10;0.10;;;;;;;35.43;29.98;98917.38;7399445;19;20094;-55
2024/03/13 11:39:33;;;;;;;0.35;0.10;;;;;;;35.26;29.95;98908.84;7395198;19;20010;-55
2024/03/13 11:42:14;;;;;;;0.22;0.10;;;;;;;36.09;29.48;98907.22;7394451;19;20848;-55
2024/03/13 11:44:42;;;;;;;0.17;0.13;;;;;;;35.64;29.95;98913.75;7394874;19;20011;-55
2024/03/13 11:47:11;;;;;;;0.00;0.00;;;;;;;35.95;29.26;98906.03;7397266;19;20014;-55
2024/03/13 11:49:40;;;;;;;0.10;0.00;;;;;;;36.49;29.23;98904.81;7392364;19;20070;-55
2024/03/13 11:52:10;;;;;;;0.00;0.00;;;;;;;37.70;28.48;98905.16;7397178;19;20113;-55
2024/03/13 11:54:43;;;;;;;0.10;0.10;;;;;;;38.04;27.70;98888.50;7393228;19;20015;-55
2024/03/13 11:57:15;;;;;;;0.03;0.00;;;;;;;38.30;27.75;98892.03;7396602;19;20029;-55